Aeroporto :
LOGIN :

Iscrizione | Disclaimer

   EN    FR    IT 

 










Sommario :    VFR   VFR Marginale   IFR   IFR Intensivo   IFR Molto Intensivo
Visibilità : 
Base nubi : 
>= 8 km
>= 3000ft
5 / 8 km
1000 / 3000 ft
1500m / 5 km
500 / 1000 ft
800 / 1500m
200 / 500 ft
< 800m
< 200 ft
Simboli :   Temporali  Nebbia  Neve Forte  Precipitazioni Forti  Vento > 20 kt
SIGMETs :   Varie  Temporali  Ghiacco  Turbolenza  Onda orograficha  Ceneri Vulcaniche







- Altitudine del aeroporto : 270 ft
- Codice IATA : OXF
- Carte del aeroporto


EGTK - Oxford (Kidlington)

ULTIMO METAR :
  • 240720Z VRB03KT CAVOK 14/09 Q1017

METARs OBSOLETI :
  • 240650Z VRB03KT CAVOK 13/09 Q1017
  • 240620Z 23003KT CAVOK 11/09 Q1017
  • 240550Z 24004KT CAVOK 10/08 Q1017
  • 240520Z 25004KT CAVOK 09/08 Q1017

TAF TAF EGTK
Valido dal 24 a 06 ore il 24 a 15 ore UTC


240558Z 2406/2415 32008KT 9999 FEW040
PROB40
TEMPO 2411/2415 7000 SHRA
Nessun NOTAM noto per questo aeroporto.



MetMap, La meteo Aeronautica in un colpo d'occhio ! - Copyright ORBIFLY Dicembre 2007 - Disclaimer

ORBIFLY MET'MAP TEAM :

Programmazione e sviluppo : Alexandra Zaïnal
Concezione e sviluppo : Baudouin d'Aumeries
Co-Programmazione e sviluppo : Marc-Olivier Méhu
Supporto tecnico e logistico : Manuel Goepfert
Aiuto per la traduzione : Arnaldo La Scala

Contatto : metmap@orbifly.com




FONTI E CREDITI :

   NOAA